THY7EG ORBI-LTFM
Flight info
| Callsign | THY7EG |
|---|---|
| Flight time | 2h 31m |
| Altitude | 36000 |
| Route | BGD DCT TAGRU L718 KABAN DCT DYB UW73 GEM UT32 BUK UL615 YAVRU UA4 ERSEN |
| Aircraft | A321/M-SDE3FGHIRWY/LB1 |
Departure
| Time | 2026-04-24 06:41 |
|---|---|
| Airport | Baghdad International Airport / New Al Muthana Air Base (ORBI) |
Arrival
| Time | 2026-04-24 09:13 |
|---|---|
| Airport | İstanbul Airport (LTFM) |
| Time | Latitude | Longitude | Altitude | Speed | Heading |
|---|---|---|---|---|---|
| 2026-04-24 06:23 | 33.27031 | 44.23058 | 134 ft | 0 kts | 161° |
| 2026-04-24 06:32 | 33.27032 | 44.23058 | 134 ft | 1 kts | 161° |
| 2026-04-24 06:32 | 33.27045 | 44.23052 | 134 ft | 2 kts | 160° |
| 2026-04-24 06:33 | 33.27060 | 44.23046 | 134 ft | 2 kts | 165° |
| 2026-04-24 06:33 | 33.27075 | 44.23047 | 133 ft | 2 kts | 198° |
| 2026-04-24 06:33 | 33.27089 | 44.23055 | 133 ft | 2 kts | 224° |
| 2026-04-24 06:33 | 33.27095 | 44.23064 | 133 ft | 0 kts | 239° |
| 2026-04-24 06:34 | 33.27098 | 44.23071 | 133 ft | 0 kts | 241° |
| 2026-04-24 06:35 | 33.27098 | 44.23070 | 133 ft | 1 kts | 241° |
| 2026-04-24 06:35 | 33.27105 | 44.23045 | 133 ft | 3 kts | 319° |
| 2026-04-24 06:36 | 33.27144 | 44.23039 | 132 ft | 11 kts | 41° |
| 2026-04-24 06:36 | 33.27197 | 44.23139 | 129 ft | 15 kts | 59° |
| 2026-04-24 06:36 | 33.27253 | 44.23254 | 129 ft | 16 kts | 60° |
| 2026-04-24 06:36 | 33.27307 | 44.23369 | 126 ft | 13 kts | 60° |
| 2026-04-24 06:37 | 33.27349 | 44.23455 | 126 ft | 10 kts | 59° |
| 2026-04-24 06:37 | 33.27405 | 44.23514 | 125 ft | 12 kts | 360° |
| 2026-04-24 06:37 | 33.27486 | 44.23468 | 124 ft | 13 kts | 329° |
| 2026-04-24 06:37 | 33.27569 | 44.23409 | 124 ft | 14 kts | 329° |
| 2026-04-24 06:38 | 33.27659 | 44.23349 | 123 ft | 14 kts | 331° |
| 2026-04-24 06:38 | 33.27748 | 44.23291 | 124 ft | 14 kts | 331° |
| 2026-04-24 06:38 | 33.27837 | 44.23233 | 125 ft | 14 kts | 331° |
| 2026-04-24 06:38 | 33.27921 | 44.23179 | 126 ft | 13 kts | 331° |
| 2026-04-24 06:39 | 33.28005 | 44.23124 | 126 ft | 13 kts | 331° |
| 2026-04-24 06:39 | 33.28092 | 44.23068 | 126 ft | 14 kts | 331° |
| 2026-04-24 06:39 | 33.28176 | 44.23006 | 126 ft | 14 kts | 324° |
| 2026-04-24 06:39 | 33.28263 | 44.22953 | 125 ft | 11 kts | 355° |
| 2026-04-24 06:40 | 33.28317 | 44.23007 | 126 ft | 10 kts | 57° |
| 2026-04-24 06:40 | 33.28350 | 44.23088 | 126 ft | 10 kts | 84° |
| 2026-04-24 06:40 | 33.28312 | 44.23164 | 126 ft | 11 kts | 144° |
| 2026-04-24 06:40 | 33.28141 | 44.23274 | 124 ft | 57 kts | 147° |
| 2026-04-24 06:41 | 33.27594 | 44.23654 | 123 ft | 121 kts | 150° |
| 2026-04-24 06:41 | 33.26696 | 44.24278 | 151 ft | 170 kts | 151° |
| 2026-04-24 06:41 | 33.25674 | 44.24982 | 677 ft | 173 kts | 152° |
| 2026-04-24 06:41 | 33.24637 | 44.25706 | 1351 ft | 173 kts | 152° |
| 2026-04-24 06:42 | 33.23663 | 44.26517 | 1951 ft | 174 kts | 141° |
| 2026-04-24 06:42 | 33.22890 | 44.27678 | 2194 ft | 189 kts | 124° |
| 2026-04-24 06:42 | 33.22398 | 44.29216 | 2454 ft | 206 kts | 107° |
| 2026-04-24 06:42 | 33.22355 | 44.31021 | 2698 ft | 227 kts | 86° |
| 2026-04-24 06:43 | 33.22882 | 44.32898 | 2917 ft | 252 kts | 63° |
| 2026-04-24 06:43 | 33.24080 | 44.34489 | 3219 ft | 273 kts | 37° |
| 2026-04-24 06:43 | 33.25903 | 44.35394 | 3608 ft | 288 kts | 8° |
| 2026-04-24 06:43 | 33.27893 | 44.35224 | 4249 ft | 288 kts | 341° |
| 2026-04-24 06:44 | 33.29756 | 44.34457 | 4954 ft | 288 kts | 344° |
| 2026-04-24 06:44 | 33.31760 | 44.34084 | 5617 ft | 291 kts | 354° |
| 2026-04-24 06:44 | 33.33764 | 44.33889 | 6339 ft | 292 kts | 355° |
| 2026-04-24 06:44 | 33.35787 | 44.33677 | 7074 ft | 292 kts | 354° |
| 2026-04-24 06:45 | 33.37785 | 44.33420 | 7827 ft | 292 kts | 353° |
| 2026-04-24 06:45 | 33.39806 | 44.33124 | 8592 ft | 291 kts | 353° |
| 2026-04-24 06:45 | 33.41825 | 44.32805 | 9330 ft | 291 kts | 353° |
| 2026-04-24 06:45 | 33.43835 | 44.32475 | 10051 ft | 291 kts | 352° |
| 2026-04-24 06:46 | 33.45849 | 44.32139 | 10517 ft | 300 kts | 352° |
| 2026-04-24 06:46 | 33.47965 | 44.31781 | 10785 ft | 315 kts | 352° |
| 2026-04-24 06:46 | 33.50224 | 44.31395 | 11056 ft | 331 kts | 351° |
| 2026-04-24 06:46 | 33.52553 | 44.30996 | 11319 ft | 346 kts | 350° |
| 2026-04-24 06:47 | 33.54998 | 44.30566 | 11597 ft | 359 kts | 350° |
| 2026-04-24 06:47 | 33.57470 | 44.30134 | 12113 ft | 364 kts | 350° |
| 2026-04-24 06:47 | 33.59980 | 44.29695 | 12715 ft | 366 kts | 350° |
| 2026-04-24 06:47 | 33.62516 | 44.29252 | 13303 ft | 368 kts | 350° |
| 2026-04-24 06:48 | 33.65074 | 44.28805 | 13880 ft | 371 kts | 349° |
| 2026-04-24 06:48 | 33.67678 | 44.28350 | 14429 ft | 374 kts | 349° |
| 2026-04-24 06:48 | 33.70288 | 44.27893 | 14953 ft | 378 kts | 349° |
| 2026-04-24 06:48 | 33.72914 | 44.27433 | 15471 ft | 381 kts | 349° |
| 2026-04-24 06:49 | 33.75581 | 44.26966 | 15990 ft | 385 kts | 349° |
| 2026-04-24 06:49 | 33.78245 | 44.26499 | 16490 ft | 388 kts | 349° |
| 2026-04-24 06:49 | 33.80933 | 44.26026 | 16974 ft | 392 kts | 349° |
| 2026-04-24 06:49 | 33.83655 | 44.25548 | 17456 ft | 395 kts | 349° |
| 2026-04-24 06:50 | 33.86392 | 44.25068 | 17929 ft | 398 kts | 348° |
| 2026-04-24 06:50 | 33.89191 | 44.24576 | 18402 ft | 401 kts | 348° |
| 2026-04-24 06:50 | 33.91970 | 44.24088 | 18883 ft | 404 kts | 348° |
| 2026-04-24 06:50 | 33.94745 | 44.23599 | 19349 ft | 406 kts | 348° |
| 2026-04-24 06:51 | 33.97573 | 44.23102 | 19808 ft | 409 kts | 347° |
| 2026-04-24 06:51 | 34.00425 | 44.22598 | 20244 ft | 412 kts | 347° |
| 2026-04-24 06:51 | 34.03265 | 44.22096 | 20674 ft | 414 kts | 347° |
| 2026-04-24 06:51 | 34.06148 | 44.21587 | 21094 ft | 417 kts | 347° |
| 2026-04-24 06:52 | 34.09042 | 44.21077 | 21521 ft | 419 kts | 347° |
| 2026-04-24 06:52 | 34.11961 | 44.20560 | 21923 ft | 422 kts | 347° |
| 2026-04-24 06:52 | 34.14874 | 44.20044 | 22320 ft | 424 kts | 347° |
| 2026-04-24 06:52 | 34.17847 | 44.19517 | 22697 ft | 426 kts | 346° |
| 2026-04-24 06:53 | 34.20790 | 44.18995 | 23059 ft | 429 kts | 346° |
| 2026-04-24 06:53 | 34.23790 | 44.18462 | 23434 ft | 431 kts | 346° |
| 2026-04-24 06:53 | 34.26801 | 44.17929 | 23796 ft | 433 kts | 346° |
| 2026-04-24 06:53 | 34.29829 | 44.17391 | 24163 ft | 436 kts | 346° |
| 2026-04-24 06:54 | 34.32846 | 44.16854 | 24500 ft | 438 kts | 346° |
| 2026-04-24 06:54 | 34.35911 | 44.16308 | 24832 ft | 440 kts | 346° |
| 2026-04-24 06:54 | 34.38986 | 44.15762 | 25168 ft | 442 kts | 346° |
| 2026-04-24 06:54 | 34.42042 | 44.15218 | 25456 ft | 445 kts | 346° |
| 2026-04-24 06:55 | 34.45143 | 44.14666 | 25768 ft | 447 kts | 346° |
| 2026-04-24 06:55 | 34.48277 | 44.13953 | 26066 ft | 445 kts | 341° |
| 2026-04-24 06:55 | 34.51313 | 44.12930 | 26356 ft | 443 kts | 336° |
| 2026-04-24 06:55 | 34.54327 | 44.11563 | 26658 ft | 442 kts | 332° |
| 2026-04-24 06:56 | 34.57294 | 44.10036 | 26968 ft | 443 kts | 330° |
| 2026-04-24 06:56 | 34.60216 | 44.08496 | 27250 ft | 444 kts | 330° |
| 2026-04-24 06:56 | 34.63229 | 44.06905 | 27530 ft | 446 kts | 330° |
| 2026-04-24 06:56 | 34.66179 | 44.05349 | 27791 ft | 448 kts | 330° |
| 2026-04-24 06:57 | 34.69179 | 44.03769 | 28068 ft | 450 kts | 330° |
| 2026-04-24 06:57 | 34.72268 | 44.02145 | 28474 ft | 448 kts | 330° |
| 2026-04-24 06:57 | 34.75237 | 44.00587 | 28874 ft | 446 kts | 330° |
| 2026-04-24 06:57 | 34.78181 | 43.99039 | 29207 ft | 446 kts | 330° |
| 2026-04-24 06:58 | 34.81187 | 43.97456 | 29569 ft | 445 kts | 330° |
| 2026-04-24 06:58 | 34.84123 | 43.95911 | 29933 ft | 444 kts | 330° |
| 2026-04-24 06:58 | 34.87029 | 43.94379 | 30252 ft | 443 kts | 329° |
| 2026-04-24 06:58 | 34.89870 | 43.92881 | 30568 ft | 442 kts | 329° |
| 2026-04-24 06:59 | 34.92742 | 43.91365 | 30896 ft | 441 kts | 329° |
| 2026-04-24 06:59 | 34.95622 | 43.89842 | 31208 ft | 441 kts | 329° |
| 2026-04-24 06:59 | 34.98506 | 43.88318 | 31532 ft | 440 kts | 329° |
| 2026-04-24 06:59 | 35.01385 | 43.86793 | 31837 ft | 439 kts | 329° |
| 2026-04-24 07:00 | 35.04276 | 43.85263 | 32139 ft | 438 kts | 329° |
| 2026-04-24 07:00 | 35.07156 | 43.83738 | 32442 ft | 437 kts | 329° |
| 2026-04-24 07:00 | 35.09977 | 43.82242 | 32747 ft | 436 kts | 329° |
| 2026-04-24 07:00 | 35.12810 | 43.80738 | 33026 ft | 435 kts | 329° |
| 2026-04-24 07:01 | 35.15605 | 43.79253 | 33279 ft | 434 kts | 329° |
| 2026-04-24 07:01 | 35.18440 | 43.77745 | 33523 ft | 434 kts | 329° |
| 2026-04-24 07:01 | 35.21249 | 43.76250 | 33779 ft | 433 kts | 329° |
| 2026-04-24 07:01 | 35.24091 | 43.74738 | 34048 ft | 432 kts | 329° |
| 2026-04-24 07:02 | 35.26860 | 43.73261 | 34265 ft | 432 kts | 328° |
| 2026-04-24 07:02 | 35.29670 | 43.71763 | 34430 ft | 432 kts | 328° |
| 2026-04-24 07:02 | 35.32458 | 43.70279 | 34559 ft | 433 kts | 328° |
| 2026-04-24 07:02 | 35.35274 | 43.68781 | 34700 ft | 434 kts | 329° |
| 2026-04-24 07:03 | 35.38106 | 43.67276 | 34843 ft | 435 kts | 328° |
| 2026-04-24 07:03 | 35.40898 | 43.65789 | 34980 ft | 435 kts | 328° |
| 2026-04-24 07:03 | 35.43767 | 43.64259 | 35127 ft | 436 kts | 328° |
| 2026-04-24 07:03 | 35.46610 | 43.62743 | 35260 ft | 436 kts | 328° |
| 2026-04-24 07:04 | 35.49447 | 43.61228 | 35387 ft | 437 kts | 328° |
| 2026-04-24 07:04 | 35.52310 | 43.59698 | 35520 ft | 437 kts | 328° |
| 2026-04-24 07:04 | 35.55166 | 43.58170 | 35656 ft | 438 kts | 328° |
| 2026-04-24 07:04 | 35.58004 | 43.56650 | 35764 ft | 438 kts | 328° |
| 2026-04-24 07:05 | 35.60889 | 43.55106 | 35883 ft | 439 kts | 328° |
| 2026-04-24 07:05 | 35.66660 | 43.52010 | 35962 ft | 440 kts | 328° |
| 2026-04-24 07:06 | 35.72416 | 43.48917 | 35966 ft | 440 kts | 328° |
| 2026-04-24 07:06 | 35.78205 | 43.45802 | 35966 ft | 440 kts | 328° |
| 2026-04-24 07:07 | 35.83993 | 43.42682 | 35976 ft | 440 kts | 328° |
| 2026-04-24 07:07 | 35.92617 | 43.38027 | 35975 ft | 440 kts | 328° |
| 2026-04-24 07:08 | 35.98353 | 43.34916 | 35966 ft | 440 kts | 328° |
| 2026-04-24 07:08 | 36.04121 | 43.31789 | 35973 ft | 440 kts | 328° |
| 2026-04-24 07:09 | 36.09862 | 43.28671 | 35975 ft | 440 kts | 328° |
| 2026-04-24 07:09 | 36.15527 | 43.25568 | 35968 ft | 439 kts | 327° |
| 2026-04-24 07:10 | 36.21167 | 43.22464 | 35969 ft | 439 kts | 327° |
| 2026-04-24 07:10 | 36.26817 | 43.19351 | 35973 ft | 440 kts | 327° |
| 2026-04-24 07:11 | 36.32430 | 43.16256 | 35981 ft | 440 kts | 327° |
| 2026-04-24 07:11 | 36.38034 | 43.13160 | 35981 ft | 441 kts | 327° |
| 2026-04-24 07:12 | 36.43679 | 43.10037 | 35987 ft | 441 kts | 327° |
| 2026-04-24 07:12 | 36.49311 | 43.06916 | 35978 ft | 442 kts | 327° |
| 2026-04-24 07:13 | 36.55010 | 43.03754 | 35982 ft | 442 kts | 327° |
| 2026-04-24 07:13 | 36.60629 | 43.00629 | 35989 ft | 442 kts | 327° |
| 2026-04-24 07:14 | 36.66292 | 42.97476 | 35995 ft | 444 kts | 327° |
| 2026-04-24 07:14 | 36.71934 | 42.94331 | 36000 ft | 444 kts | 327° |
| 2026-04-24 07:15 | 36.77579 | 42.91178 | 36002 ft | 444 kts | 327° |
| 2026-04-24 07:15 | 36.83206 | 42.88074 | 36004 ft | 445 kts | 328° |
| 2026-04-24 07:16 | 36.88924 | 42.84927 | 36007 ft | 445 kts | 327° |
| 2026-04-24 07:16 | 36.94565 | 42.81814 | 36010 ft | 445 kts | 327° |
| 2026-04-24 07:17 | 37.00241 | 42.78672 | 36011 ft | 446 kts | 327° |
| 2026-04-24 07:17 | 37.05922 | 42.75523 | 36014 ft | 446 kts | 328° |
| 2026-04-24 07:18 | 37.11595 | 42.72373 | 36019 ft | 446 kts | 328° |
| 2026-04-24 07:18 | 37.17220 | 42.69170 | 36013 ft | 440 kts | 323° |
| 2026-04-24 07:19 | 37.22052 | 42.64835 | 36012 ft | 422 kts | 309° |
| 2026-04-24 07:19 | 37.25736 | 42.59212 | 36014 ft | 409 kts | 295° |
| 2026-04-24 07:20 | 37.28118 | 42.52846 | 36020 ft | 401 kts | 284° |
| 2026-04-24 07:20 | 37.29918 | 42.46161 | 36012 ft | 401 kts | 283° |
| 2026-04-24 07:21 | 37.31687 | 42.39491 | 36006 ft | 400 kts | 283° |
| 2026-04-24 07:21 | 37.33448 | 42.32847 | 35998 ft | 400 kts | 283° |
| 2026-04-24 07:22 | 37.35227 | 42.26122 | 35993 ft | 401 kts | 283° |
| 2026-04-24 07:22 | 37.37000 | 42.19413 | 35987 ft | 400 kts | 283° |
| 2026-04-24 07:23 | 37.38777 | 42.12664 | 35988 ft | 400 kts | 283° |
| 2026-04-24 07:23 | 37.40551 | 42.05911 | 35991 ft | 400 kts | 283° |
| 2026-04-24 07:24 | 37.42338 | 41.99088 | 36001 ft | 400 kts | 283° |
| 2026-04-24 07:24 | 37.44083 | 41.92419 | 36000 ft | 399 kts | 283° |
| 2026-04-24 07:25 | 37.45823 | 41.85738 | 36002 ft | 399 kts | 283° |
| 2026-04-24 07:25 | 37.47577 | 41.78993 | 35999 ft | 399 kts | 283° |
| 2026-04-24 07:26 | 37.49232 | 41.72613 | 36002 ft | 399 kts | 283° |
| 2026-04-24 07:26 | 37.50959 | 41.65931 | 36008 ft | 399 kts | 283° |
| 2026-04-24 07:27 | 37.52673 | 41.59289 | 36003 ft | 398 kts | 283° |
| 2026-04-24 07:27 | 37.54377 | 41.52663 | 36003 ft | 398 kts | 283° |
| 2026-04-24 07:28 | 37.56081 | 41.46022 | 36001 ft | 398 kts | 283° |
| 2026-04-24 07:28 | 37.57798 | 41.39315 | 36006 ft | 398 kts | 283° |
| 2026-04-24 07:29 | 37.59511 | 41.32600 | 35998 ft | 398 kts | 283° |
| 2026-04-24 07:29 | 37.61215 | 41.25910 | 36002 ft | 398 kts | 283° |
| 2026-04-24 07:30 | 37.62910 | 41.19230 | 35995 ft | 397 kts | 283° |
| 2026-04-24 07:30 | 37.64609 | 41.12520 | 35999 ft | 397 kts | 283° |
| 2026-04-24 07:31 | 37.66301 | 41.05821 | 35988 ft | 397 kts | 283° |
| 2026-04-24 07:31 | 37.67980 | 40.99151 | 35985 ft | 397 kts | 283° |
| 2026-04-24 07:32 | 37.69658 | 40.92475 | 35985 ft | 398 kts | 283° |
| 2026-04-24 07:32 | 37.71321 | 40.85839 | 35979 ft | 397 kts | 283° |
| 2026-04-24 07:33 | 37.72982 | 40.79189 | 35973 ft | 398 kts | 283° |
| 2026-04-24 07:33 | 37.74635 | 40.72556 | 35976 ft | 398 kts | 283° |
| 2026-04-24 07:34 | 37.76297 | 40.65861 | 35977 ft | 398 kts | 283° |
| 2026-04-24 07:34 | 37.77946 | 40.59210 | 35978 ft | 398 kts | 283° |
| 2026-04-24 07:35 | 37.79595 | 40.52541 | 35974 ft | 399 kts | 283° |
| 2026-04-24 07:35 | 37.81249 | 40.45825 | 35971 ft | 399 kts | 283° |
| 2026-04-24 07:36 | 37.82905 | 40.39088 | 35968 ft | 398 kts | 283° |
| 2026-04-24 07:36 | 37.84541 | 40.32412 | 35969 ft | 398 kts | 282° |
| 2026-04-24 07:37 | 37.86186 | 40.25680 | 35966 ft | 398 kts | 282° |
| 2026-04-24 07:37 | 37.87908 | 40.19000 | 35965 ft | 400 kts | 284° |
| 2026-04-24 07:38 | 37.89813 | 40.12420 | 35965 ft | 400 kts | 285° |
| 2026-04-24 07:38 | 37.91726 | 40.05826 | 35964 ft | 400 kts | 285° |
| 2026-04-24 07:39 | 37.93641 | 39.99208 | 35965 ft | 400 kts | 285° |
| 2026-04-24 07:39 | 37.95554 | 39.92578 | 35972 ft | 400 kts | 285° |
| 2026-04-24 07:40 | 37.97454 | 39.85978 | 35970 ft | 400 kts | 285° |
| 2026-04-24 07:40 | 37.99355 | 39.79359 | 35974 ft | 400 kts | 285° |
| 2026-04-24 07:41 | 38.01244 | 39.72761 | 35975 ft | 400 kts | 285° |
| 2026-04-24 07:41 | 38.03140 | 39.66126 | 35976 ft | 400 kts | 285° |
| 2026-04-24 07:42 | 38.05033 | 39.59486 | 35977 ft | 400 kts | 285° |
| 2026-04-24 07:42 | 38.06916 | 39.52860 | 35981 ft | 400 kts | 285° |
| 2026-04-24 07:43 | 38.08801 | 39.46218 | 35977 ft | 400 kts | 285° |
| 2026-04-24 07:43 | 38.10686 | 39.39552 | 35979 ft | 400 kts | 285° |
| 2026-04-24 07:44 | 38.12558 | 39.32916 | 35980 ft | 400 kts | 284° |
| 2026-04-24 07:44 | 38.14436 | 39.26245 | 35981 ft | 399 kts | 284° |
| 2026-04-24 07:45 | 38.16283 | 39.19607 | 35985 ft | 399 kts | 284° |
| 2026-04-24 07:45 | 38.18108 | 39.12925 | 35986 ft | 399 kts | 284° |
| 2026-04-24 07:46 | 38.19936 | 39.06238 | 35987 ft | 399 kts | 284° |
| 2026-04-24 07:46 | 38.21791 | 38.99624 | 35990 ft | 399 kts | 284° |
| 2026-04-24 07:47 | 38.23653 | 38.92974 | 35989 ft | 399 kts | 284° |
| 2026-04-24 07:47 | 38.25523 | 38.86277 | 35990 ft | 399 kts | 284° |
| 2026-04-24 07:48 | 38.27367 | 38.79641 | 35991 ft | 398 kts | 284° |
| 2026-04-24 07:48 | 38.29239 | 38.72926 | 35995 ft | 398 kts | 284° |
| 2026-04-24 07:49 | 38.31097 | 38.66260 | 35994 ft | 398 kts | 284° |
| 2026-04-24 07:49 | 38.32955 | 38.59572 | 35995 ft | 398 kts | 284° |
| 2026-04-24 07:50 | 38.34792 | 38.52946 | 35996 ft | 398 kts | 284° |
| 2026-04-24 07:50 | 38.36623 | 38.46317 | 35998 ft | 397 kts | 284° |
| 2026-04-24 07:51 | 38.38451 | 38.39695 | 35999 ft | 396 kts | 284° |
| 2026-04-24 07:51 | 38.40286 | 38.33022 | 36001 ft | 396 kts | 283° |
| 2026-04-24 07:52 | 38.42099 | 38.26414 | 35992 ft | 396 kts | 283° |
| 2026-04-24 07:52 | 38.43922 | 38.19748 | 35988 ft | 395 kts | 283° |
| 2026-04-24 07:53 | 38.45735 | 38.13124 | 35985 ft | 396 kts | 284° |
| 2026-04-24 07:53 | 38.47837 | 38.06598 | 35989 ft | 398 kts | 287° |
| 2026-04-24 07:54 | 38.50044 | 38.00144 | 35986 ft | 397 kts | 287° |
| 2026-04-24 07:54 | 38.52274 | 37.93620 | 35991 ft | 397 kts | 287° |
| 2026-04-24 07:55 | 38.54516 | 37.87045 | 35997 ft | 398 kts | 287° |
| 2026-04-24 07:55 | 38.56770 | 37.80418 | 36007 ft | 397 kts | 287° |
| 2026-04-24 07:56 | 38.59015 | 37.73809 | 36014 ft | 398 kts | 287° |
| 2026-04-24 07:56 | 38.61272 | 37.67140 | 36013 ft | 397 kts | 287° |
| 2026-04-24 07:57 | 38.63524 | 37.60477 | 36021 ft | 398 kts | 287° |
| 2026-04-24 07:57 | 38.65767 | 37.53820 | 36017 ft | 398 kts | 287° |
| 2026-04-24 07:58 | 38.68006 | 37.47165 | 36014 ft | 397 kts | 287° |
| 2026-04-24 07:58 | 38.70230 | 37.40535 | 36010 ft | 398 kts | 287° |
| 2026-04-24 07:59 | 38.72517 | 37.33701 | 36004 ft | 398 kts | 287° |
| 2026-04-24 07:59 | 38.74868 | 37.26660 | 35999 ft | 397 kts | 287° |
| 2026-04-24 08:00 | 38.77221 | 37.19598 | 35997 ft | 398 kts | 287° |
| 2026-04-24 08:00 | 38.79540 | 37.12621 | 35996 ft | 398 kts | 287° |
| 2026-04-24 08:01 | 38.81837 | 37.05709 | 35993 ft | 398 kts | 287° |
| 2026-04-24 08:01 | 38.84125 | 36.98812 | 35995 ft | 398 kts | 287° |
| 2026-04-24 08:02 | 38.86381 | 36.91996 | 35979 ft | 399 kts | 287° |
| 2026-04-24 08:02 | 38.88642 | 36.85141 | 35968 ft | 399 kts | 287° |
| 2026-04-24 08:03 | 38.90911 | 36.78250 | 35962 ft | 400 kts | 287° |
| 2026-04-24 08:03 | 38.93176 | 36.71356 | 35970 ft | 399 kts | 287° |
| 2026-04-24 08:04 | 38.95412 | 36.64529 | 35978 ft | 401 kts | 287° |
| 2026-04-24 08:04 | 38.97639 | 36.57714 | 35984 ft | 400 kts | 287° |
| 2026-04-24 08:05 | 38.99890 | 36.50812 | 35991 ft | 402 kts | 287° |
| 2026-04-24 08:05 | 39.02134 | 36.43914 | 35995 ft | 401 kts | 287° |
| 2026-04-24 08:06 | 39.04380 | 36.36995 | 35989 ft | 402 kts | 287° |
| 2026-04-24 08:06 | 39.06601 | 36.30129 | 35986 ft | 402 kts | 286° |
| 2026-04-24 08:07 | 39.08824 | 36.23246 | 35979 ft | 402 kts | 287° |
| 2026-04-24 08:07 | 39.11011 | 36.16460 | 35987 ft | 402 kts | 287° |
| 2026-04-24 08:08 | 39.13223 | 36.09569 | 35993 ft | 402 kts | 287° |
| 2026-04-24 08:09 | 39.16710 | 35.99444 | 35990 ft | 405 kts | 290° |
| 2026-04-24 08:09 | 39.19302 | 35.92782 | 35992 ft | 405 kts | 290° |
| 2026-04-24 08:10 | 39.21910 | 35.86084 | 35985 ft | 404 kts | 290° |
| 2026-04-24 08:10 | 39.24537 | 35.79316 | 35962 ft | 405 kts | 290° |
| 2026-04-24 08:11 | 39.27154 | 35.72564 | 35942 ft | 405 kts | 290° |
| 2026-04-24 08:11 | 39.29766 | 35.65801 | 35944 ft | 404 kts | 290° |
| 2026-04-24 08:12 | 39.32373 | 35.59036 | 35968 ft | 404 kts | 290° |
| 2026-04-24 08:12 | 39.34966 | 35.52297 | 35980 ft | 405 kts | 290° |
| 2026-04-24 08:13 | 39.37569 | 35.45513 | 35987 ft | 405 kts | 290° |
| 2026-04-24 08:13 | 39.40179 | 35.38699 | 35994 ft | 404 kts | 290° |
| 2026-04-24 08:14 | 39.42743 | 35.31986 | 35984 ft | 405 kts | 290° |
| 2026-04-24 08:14 | 39.45335 | 35.25187 | 35992 ft | 404 kts | 290° |
| 2026-04-24 08:15 | 39.47928 | 35.18370 | 35975 ft | 404 kts | 290° |
| 2026-04-24 08:15 | 39.50504 | 35.11583 | 35990 ft | 405 kts | 290° |
| 2026-04-24 08:16 | 39.53037 | 35.04894 | 35980 ft | 405 kts | 290° |
| 2026-04-24 08:16 | 39.55584 | 34.98147 | 35977 ft | 405 kts | 290° |
| 2026-04-24 08:17 | 39.58131 | 34.91391 | 35988 ft | 406 kts | 290° |
| 2026-04-24 08:17 | 39.60684 | 34.84600 | 35990 ft | 406 kts | 290° |
| 2026-04-24 08:18 | 39.63236 | 34.77800 | 35971 ft | 406 kts | 290° |
| 2026-04-24 08:18 | 39.65781 | 34.71000 | 35977 ft | 407 kts | 290° |
| 2026-04-24 08:19 | 39.68331 | 34.64171 | 35973 ft | 408 kts | 290° |
| 2026-04-24 08:19 | 39.70864 | 34.57371 | 35984 ft | 408 kts | 290° |
| 2026-04-24 08:20 | 39.73403 | 34.50545 | 35982 ft | 409 kts | 290° |
| 2026-04-24 08:20 | 39.75943 | 34.43697 | 35991 ft | 410 kts | 290° |
| 2026-04-24 08:21 | 39.78482 | 34.36834 | 35989 ft | 411 kts | 290° |
| 2026-04-24 08:21 | 39.80996 | 34.30022 | 35994 ft | 411 kts | 290° |
| 2026-04-24 08:22 | 39.83529 | 34.23146 | 35993 ft | 411 kts | 290° |
| 2026-04-24 08:22 | 39.86013 | 34.16388 | 35982 ft | 411 kts | 290° |
| 2026-04-24 08:23 | 39.88485 | 34.09645 | 35984 ft | 412 kts | 290° |
| 2026-04-24 08:23 | 39.90971 | 34.02845 | 35973 ft | 414 kts | 290° |
| 2026-04-24 08:24 | 39.93446 | 33.96062 | 35974 ft | 415 kts | 290° |
| 2026-04-24 08:24 | 39.95934 | 33.89228 | 35994 ft | 416 kts | 290° |
| 2026-04-24 08:25 | 39.98407 | 33.82424 | 35983 ft | 416 kts | 290° |
| 2026-04-24 08:25 | 40.00892 | 33.75567 | 35980 ft | 416 kts | 291° |
| 2026-04-24 08:26 | 40.03361 | 33.68732 | 35991 ft | 418 kts | 291° |
| 2026-04-24 08:26 | 40.05844 | 33.61854 | 35987 ft | 418 kts | 291° |
| 2026-04-24 08:27 | 40.08308 | 33.55001 | 35985 ft | 418 kts | 291° |
| 2026-04-24 08:27 | 40.10765 | 33.48162 | 35994 ft | 419 kts | 291° |
| 2026-04-24 08:28 | 40.13242 | 33.41244 | 35993 ft | 419 kts | 291° |
| 2026-04-24 08:28 | 40.15686 | 33.34405 | 35995 ft | 419 kts | 290° |
| 2026-04-24 08:29 | 40.18153 | 33.27479 | 35992 ft | 420 kts | 291° |
| 2026-04-24 08:29 | 40.20610 | 33.20570 | 35983 ft | 420 kts | 291° |
| 2026-04-24 08:30 | 40.23057 | 33.13669 | 35988 ft | 420 kts | 290° |
| 2026-04-24 08:30 | 40.25198 | 33.06572 | 35989 ft | 418 kts | 286° |
| 2026-04-24 08:31 | 40.27066 | 32.99426 | 35995 ft | 419 kts | 285° |
| 2026-04-24 08:31 | 40.28939 | 32.92193 | 35994 ft | 419 kts | 285° |
| 2026-04-24 08:32 | 40.30812 | 32.84946 | 35996 ft | 421 kts | 286° |
| 2026-04-24 08:32 | 40.32672 | 32.77738 | 35991 ft | 421 kts | 286° |
| 2026-04-24 08:33 | 40.34535 | 32.70495 | 35988 ft | 421 kts | 286° |
| 2026-04-24 08:33 | 40.36402 | 32.63211 | 35985 ft | 422 kts | 286° |
| 2026-04-24 08:34 | 40.38266 | 32.55926 | 35976 ft | 422 kts | 286° |
| 2026-04-24 08:34 | 40.40124 | 32.48636 | 35970 ft | 423 kts | 286° |
| 2026-04-24 08:35 | 40.41986 | 32.41309 | 35967 ft | 424 kts | 286° |
| 2026-04-24 08:35 | 40.43849 | 32.33965 | 35970 ft | 424 kts | 286° |
| 2026-04-24 08:36 | 40.45692 | 32.26667 | 35970 ft | 424 kts | 286° |
| 2026-04-24 08:36 | 40.47574 | 32.19352 | 35965 ft | 425 kts | 288° |
| 2026-04-24 08:37 | 40.49716 | 32.12070 | 36217 ft | 426 kts | 289° |
| 2026-04-24 08:37 | 40.50831 | 32.08313 | 36056 ft | 425 kts | 289° |
| 2026-04-24 08:37 | 40.51946 | 32.04561 | 35789 ft | 425 kts | 289° |
| 2026-04-24 08:37 | 40.53047 | 32.00844 | 36140 ft | 426 kts | 289° |
| 2026-04-24 08:38 | 40.54146 | 31.97118 | 35737 ft | 425 kts | 289° |
| 2026-04-24 08:38 | 40.55219 | 31.93482 | 36064 ft | 426 kts | 289° |
| 2026-04-24 08:38 | 40.56283 | 31.89865 | 36001 ft | 426 kts | 289° |
| 2026-04-24 08:39 | 40.58396 | 31.82525 | 35963 ft | 425 kts | 287° |
| 2026-04-24 08:39 | 40.60253 | 31.75105 | 35968 ft | 426 kts | 287° |
| 2026-04-24 08:40 | 40.62092 | 31.67662 | 35967 ft | 427 kts | 287° |
| 2026-04-24 08:40 | 40.63926 | 31.60226 | 35970 ft | 428 kts | 287° |
| 2026-04-24 08:41 | 40.65770 | 31.52743 | 35973 ft | 428 kts | 287° |
| 2026-04-24 08:41 | 40.67623 | 31.45274 | 35972 ft | 429 kts | 287° |
| 2026-04-24 08:42 | 40.69445 | 31.37797 | 35983 ft | 430 kts | 287° |
| 2026-04-24 08:42 | 40.71273 | 31.30275 | 35987 ft | 430 kts | 287° |
| 2026-04-24 08:43 | 40.73088 | 31.22801 | 35999 ft | 431 kts | 287° |
| 2026-04-24 08:43 | 40.74912 | 31.15268 | 35994 ft | 432 kts | 287° |
| 2026-04-24 08:44 | 40.76737 | 31.07705 | 35996 ft | 432 kts | 287° |
| 2026-04-24 08:44 | 40.78559 | 31.00127 | 36006 ft | 433 kts | 287° |
| 2026-04-24 08:45 | 40.80377 | 30.92546 | 36001 ft | 434 kts | 287° |
| 2026-04-24 08:45 | 40.82212 | 30.84871 | 36007 ft | 434 kts | 287° |
| 2026-04-24 08:46 | 40.84019 | 30.77286 | 36003 ft | 434 kts | 287° |
| 2026-04-24 08:46 | 40.85820 | 30.69685 | 35999 ft | 432 kts | 287° |
| 2026-04-24 08:46 | 40.86619 | 30.65836 | 35736 ft | 428 kts | 284° |
| 2026-04-24 08:47 | 40.87265 | 30.61909 | 35132 ft | 429 kts | 282° |
| 2026-04-24 08:47 | 40.87856 | 30.57974 | 34507 ft | 429 kts | 282° |
| 2026-04-24 08:47 | 40.88439 | 30.54044 | 33942 ft | 430 kts | 282° |
| 2026-04-24 08:47 | 40.89016 | 30.50146 | 33398 ft | 431 kts | 282° |
| 2026-04-24 08:48 | 40.89590 | 30.46247 | 32787 ft | 433 kts | 281° |
| 2026-04-24 08:48 | 40.90060 | 30.42250 | 32136 ft | 435 kts | 278° |
| 2026-04-24 08:48 | 40.90367 | 30.38261 | 31451 ft | 437 kts | 276° |
| 2026-04-24 08:48 | 40.90622 | 30.34278 | 30706 ft | 439 kts | 276° |
| 2026-04-24 08:49 | 40.90875 | 30.30175 | 29828 ft | 441 kts | 276° |
| 2026-04-24 08:49 | 40.91124 | 30.26112 | 28972 ft | 443 kts | 276° |
| 2026-04-24 08:49 | 40.91370 | 30.22092 | 28544 ft | 434 kts | 276° |
| 2026-04-24 08:49 | 40.91611 | 30.18120 | 28281 ft | 423 kts | 276° |
| 2026-04-24 08:50 | 40.91847 | 30.14227 | 27791 ft | 418 kts | 276° |
| 2026-04-24 08:50 | 40.92078 | 30.10404 | 27241 ft | 414 kts | 276° |
| 2026-04-24 08:50 | 40.92307 | 30.06593 | 26704 ft | 410 kts | 276° |
| 2026-04-24 08:50 | 40.92309 | 30.02811 | 26114 ft | 409 kts | 265° |
| 2026-04-24 08:51 | 40.91680 | 29.99170 | 25555 ft | 408 kts | 252° |
| 2026-04-24 08:51 | 40.90478 | 29.95754 | 25020 ft | 405 kts | 243° |
| 2026-04-24 08:51 | 40.89098 | 29.92496 | 24461 ft | 403 kts | 242° |
| 2026-04-24 08:51 | 40.87711 | 29.89278 | 23920 ft | 400 kts | 242° |
| 2026-04-24 08:52 | 40.86355 | 29.86117 | 23405 ft | 397 kts | 242° |
| 2026-04-24 08:52 | 40.84987 | 29.82900 | 22892 ft | 395 kts | 242° |
| 2026-04-24 08:52 | 40.83728 | 29.79652 | 22345 ft | 391 kts | 251° |
| 2026-04-24 08:52 | 40.83308 | 29.76150 | 21787 ft | 383 kts | 274° |
| 2026-04-24 08:53 | 40.83858 | 29.72797 | 21334 ft | 375 kts | 294° |
| 2026-04-24 08:53 | 40.85153 | 29.69863 | 20852 ft | 369 kts | 306° |
| 2026-04-24 08:53 | 40.86605 | 29.67097 | 20366 ft | 366 kts | 306° |
| 2026-04-24 08:53 | 40.88048 | 29.64346 | 19890 ft | 364 kts | 306° |
| 2026-04-24 08:54 | 40.89471 | 29.61599 | 19388 ft | 361 kts | 306° |
| 2026-04-24 08:54 | 40.90875 | 29.58857 | 18997 ft | 357 kts | 306° |
| 2026-04-24 08:54 | 40.92397 | 29.56324 | 18667 ft | 348 kts | 319° |
| 2026-04-24 08:54 | 40.94344 | 29.54389 | 18082 ft | 348 kts | 327° |
| 2026-04-24 08:55 | 40.96379 | 29.52641 | 17571 ft | 347 kts | 328° |
| 2026-04-24 08:55 | 40.98399 | 29.50900 | 17105 ft | 346 kts | 328° |
| 2026-04-24 08:55 | 41.00423 | 29.49114 | 16645 ft | 344 kts | 327° |
| 2026-04-24 08:55 | 41.02422 | 29.47313 | 16178 ft | 342 kts | 326° |
| 2026-04-24 08:56 | 41.04383 | 29.45523 | 15718 ft | 340 kts | 326° |
| 2026-04-24 08:56 | 41.06339 | 29.43721 | 15272 ft | 338 kts | 326° |
| 2026-04-24 08:56 | 41.08289 | 29.41915 | 14818 ft | 336 kts | 326° |
| 2026-04-24 08:56 | 41.10195 | 29.40142 | 14369 ft | 335 kts | 326° |
| 2026-04-24 08:57 | 41.12123 | 29.38345 | 13940 ft | 333 kts | 325° |
| 2026-04-24 08:57 | 41.14089 | 29.36509 | 13520 ft | 330 kts | 325° |
| 2026-04-24 08:57 | 41.16068 | 29.34658 | 13130 ft | 328 kts | 325° |
| 2026-04-24 08:57 | 41.18161 | 29.32698 | 12714 ft | 326 kts | 325° |
| 2026-04-24 08:58 | 41.20271 | 29.30720 | 12287 ft | 323 kts | 325° |
| 2026-04-24 08:58 | 41.22380 | 29.28743 | 11860 ft | 320 kts | 325° |
| 2026-04-24 08:58 | 41.24447 | 29.26803 | 11433 ft | 318 kts | 325° |
| 2026-04-24 08:58 | 41.26541 | 29.24837 | 10994 ft | 316 kts | 325° |
| 2026-04-24 08:59 | 41.28594 | 29.22907 | 10563 ft | 312 kts | 325° |
| 2026-04-24 08:59 | 41.30616 | 29.21006 | 10131 ft | 309 kts | 325° |
| 2026-04-24 08:59 | 41.32621 | 29.19119 | 9702 ft | 306 kts | 324° |
| 2026-04-24 08:59 | 41.34602 | 29.17253 | 9265 ft | 304 kts | 324° |
| 2026-04-24 09:00 | 41.36482 | 29.15480 | 8839 ft | 291 kts | 324° |
| 2026-04-24 09:00 | 41.38251 | 29.13811 | 8518 ft | 273 kts | 324° |
| 2026-04-24 09:00 | 41.40011 | 29.12149 | 8215 ft | 269 kts | 324° |
| 2026-04-24 09:00 | 41.41765 | 29.10492 | 7890 ft | 267 kts | 324° |
| 2026-04-24 09:01 | 41.43469 | 29.08881 | 7577 ft | 265 kts | 324° |
| 2026-04-24 09:01 | 41.45176 | 29.07267 | 7260 ft | 263 kts | 324° |
| 2026-04-24 09:01 | 41.46867 | 29.05666 | 6943 ft | 262 kts | 324° |
| 2026-04-24 09:01 | 41.48573 | 29.04049 | 6623 ft | 262 kts | 324° |
| 2026-04-24 09:02 | 41.50223 | 29.02485 | 6312 ft | 261 kts | 324° |
| 2026-04-24 09:02 | 41.51914 | 29.00881 | 5991 ft | 259 kts | 324° |
| 2026-04-24 09:02 | 41.53589 | 28.99292 | 5674 ft | 257 kts | 324° |
| 2026-04-24 09:02 | 41.55239 | 28.97723 | 5359 ft | 254 kts | 324° |
| 2026-04-24 09:03 | 41.56854 | 28.96188 | 5096 ft | 248 kts | 324° |
| 2026-04-24 09:03 | 41.58323 | 28.94511 | 5012 ft | 235 kts | 314° |
| 2026-04-24 09:03 | 41.59489 | 28.92705 | 4985 ft | 224 kts | 310° |
| 2026-04-24 09:03 | 41.60576 | 28.90929 | 4978 ft | 223 kts | 310° |
| 2026-04-24 09:04 | 41.61688 | 28.89106 | 4977 ft | 224 kts | 310° |
| 2026-04-24 09:04 | 41.62772 | 28.87337 | 4978 ft | 223 kts | 310° |
| 2026-04-24 09:04 | 41.63849 | 28.85548 | 4977 ft | 223 kts | 306° |
| 2026-04-24 09:04 | 41.64677 | 28.83559 | 4975 ft | 224 kts | 294° |
| 2026-04-24 09:05 | 41.65296 | 28.81429 | 4973 ft | 225 kts | 292° |
| 2026-04-24 09:05 | 41.65888 | 28.79227 | 4977 ft | 226 kts | 288° |
| 2026-04-24 09:05 | 41.65899 | 28.77058 | 4960 ft | 230 kts | 252° |
| 2026-04-24 09:05 | 41.64965 | 28.75290 | 4967 ft | 236 kts | 219° |
| 2026-04-24 09:06 | 41.63469 | 28.74345 | 4983 ft | 241 kts | 202° |
| 2026-04-24 09:06 | 41.61862 | 28.73588 | 4977 ft | 242 kts | 201° |
| 2026-04-24 09:06 | 41.60257 | 28.72848 | 4974 ft | 242 kts | 200° |
| 2026-04-24 09:06 | 41.58595 | 28.72311 | 4971 ft | 242 kts | 189° |
| 2026-04-24 09:07 | 41.56889 | 28.72153 | 4977 ft | 243 kts | 182° |
| 2026-04-24 09:07 | 41.55179 | 28.72173 | 4979 ft | 243 kts | 180° |
| 2026-04-24 09:07 | 41.51757 | 28.72284 | 4590 ft | 244 kts | 180° |
| 2026-04-24 09:08 | 41.49901 | 28.72328 | 4232 ft | 247 kts | 181° |
| 2026-04-24 09:08 | 41.48116 | 28.72362 | 3887 ft | 249 kts | 181° |
| 2026-04-24 09:08 | 41.46358 | 28.72394 | 3519 ft | 245 kts | 181° |
| 2026-04-24 09:08 | 41.44649 | 28.72427 | 3171 ft | 226 kts | 181° |
| 2026-04-24 09:09 | 41.43088 | 28.72457 | 2925 ft | 211 kts | 181° |
| 2026-04-24 09:09 | 41.41648 | 28.72485 | 2719 ft | 191 kts | 182° |
| 2026-04-24 09:09 | 41.40356 | 28.72510 | 2443 ft | 178 kts | 182° |
| 2026-04-24 09:09 | 41.39134 | 28.72533 | 2160 ft | 166 kts | 183° |
| 2026-04-24 09:10 | 41.38012 | 28.72556 | 1907 ft | 152 kts | 183° |
| 2026-04-24 09:10 | 41.36986 | 28.72576 | 1697 ft | 144 kts | 184° |
| 2026-04-24 09:10 | 41.35992 | 28.72593 | 1525 ft | 142 kts | 184° |
| 2026-04-24 09:10 | 41.35012 | 28.72611 | 1349 ft | 141 kts | 184° |
| 2026-04-24 09:11 | 41.34027 | 28.72630 | 1169 ft | 139 kts | 184° |
| 2026-04-24 09:11 | 41.33068 | 28.72648 | 983 ft | 138 kts | 183° |
| 2026-04-24 09:11 | 41.32092 | 28.72692 | 825 ft | 141 kts | 182° |
| 2026-04-24 09:11 | 41.31114 | 28.72713 | 645 ft | 139 kts | 184° |
| 2026-04-24 09:12 | 41.30171 | 28.72709 | 405 ft | 132 kts | 183° |
| 2026-04-24 09:12 | 41.29299 | 28.72728 | 335 ft | 116 kts | 184° |
| 2026-04-24 09:12 | 41.28644 | 28.72724 | 334 ft | 74 kts | 181° |
| 2026-04-24 09:12 | 41.28215 | 28.72732 | 334 ft | 55 kts | 178° |
| 2026-04-24 09:13 | 41.27927 | 28.72757 | 334 ft | 32 kts | 164° |
| 2026-04-24 09:13 | 41.27775 | 28.72831 | 334 ft | 11 kts | 155° |
| 2026-04-24 09:13 | 41.27708 | 28.72876 | 334 ft | 10 kts | 150° |
| 2026-04-24 09:13 | 41.27644 | 28.72924 | 334 ft | 10 kts | 151° |
| 2026-04-24 09:14 | 41.27575 | 28.72969 | 334 ft | 11 kts | 161° |
| 2026-04-24 09:14 | 41.27494 | 28.72976 | 334 ft | 11 kts | 180° |
| 2026-04-24 09:14 | 41.27409 | 28.72976 | 334 ft | 12 kts | 180° |
| 2026-04-24 09:14 | 41.27319 | 28.72977 | 334 ft | 13 kts | 180° |
| 2026-04-24 09:15 | 41.27226 | 28.72975 | 334 ft | 13 kts | 182° |
| 2026-04-24 09:15 | 41.27132 | 28.72978 | 334 ft | 14 kts | 178° |
| 2026-04-24 09:15 | 41.27034 | 28.72980 | 334 ft | 12 kts | 177° |
| 2026-04-24 09:15 | 41.26966 | 28.72998 | 334 ft | 10 kts | 148° |
| 2026-04-24 09:16 | 41.26941 | 28.73081 | 334 ft | 10 kts | 91° |
| 2026-04-24 09:16 | 41.26941 | 28.73186 | 334 ft | 11 kts | 90° |
| 2026-04-24 09:16 | 41.26941 | 28.73302 | 334 ft | 12 kts | 90° |
| 2026-04-24 09:16 | 41.26944 | 28.73422 | 334 ft | 13 kts | 90° |
| 2026-04-24 09:17 | 41.26944 | 28.73550 | 334 ft | 14 kts | 90° |
| 2026-04-24 09:17 | 41.26944 | 28.73684 | 334 ft | 14 kts | 89° |
| 2026-04-24 09:17 | 41.26946 | 28.73816 | 334 ft | 11 kts | 89° |
| 2026-04-24 09:17 | 41.26947 | 28.73922 | 334 ft | 12 kts | 89° |
| 2026-04-24 09:18 | 41.26912 | 28.74011 | 334 ft | 10 kts | 166° |
| 2026-04-24 09:18 | 41.26856 | 28.74057 | 334 ft | 8 kts | 104° |
| 2026-04-24 09:18 | 41.26854 | 28.74129 | 334 ft | 0 kts | 90° |